createdAt,value
2022-08-18T00:01:24.277Z,18.95
2022-08-18T00:03:56.673Z,26.65
2022-08-18T00:06:30.125Z,26.30
2022-08-18T00:09:04.015Z,20.80
2022-08-18T00:11:41.312Z,22.10
2022-08-18T00:14:22.297Z,20.73
2022-08-18T00:16:53.991Z,23.70
2022-08-18T00:19:45.779Z,20.92
2022-08-18T00:22:15.496Z,20.25
2022-08-18T00:24:48.044Z,17.88
2022-08-18T00:27:19.634Z,19.73
2022-08-18T00:29:49.972Z,24.05
2022-08-18T00:32:25.963Z,23.98
2022-08-18T00:34:54.611Z,17.15
2022-08-18T00:37:23.440Z,16.63
2022-08-18T00:39:54.441Z,22.30
2022-08-18T00:42:31.033Z,22.88
2022-08-18T00:45:03.885Z,19.58
2022-08-18T00:47:33.046Z,21.67
2022-08-18T00:50:21.291Z,21.85
2022-08-18T00:53:00.932Z,23.88
2022-08-18T00:55:30.496Z,25.25
2022-08-18T00:58:16.721Z,22.33
2022-08-18T01:00:45.829Z,20.92
2022-08-18T01:03:16.657Z,18.90
2022-08-18T01:06:21.790Z,20.35
2022-08-18T01:08:49.286Z,20.90
2022-08-18T01:11:16.236Z,23.05
2022-08-18T01:13:43.810Z,20.10
2022-08-18T01:16:30.054Z,25.88
2022-08-18T01:19:16.323Z,21.20
2022-08-18T01:21:51.096Z,24.10
2022-08-18T01:24:49.183Z,25.55
2022-08-18T01:27:18.746Z,22.60
2022-08-18T01:29:49.164Z,22.42
2022-08-18T01:32:23.326Z,21.27
2022-08-18T01:34:52.513Z,20.95
2022-08-18T01:37:23.701Z,22.58
2022-08-18T01:41:23.601Z,22.50
2022-08-18T01:42:39.929Z,23.90
2022-08-18T01:45:08.265Z,21.42
2022-08-18T01:47:47.179Z,21.25
2022-08-18T01:50:15.550Z,24.30
2022-08-18T01:52:42.493Z,17.48
2022-08-18T01:55:10.542Z,19.90
2022-08-18T01:57:43.079Z,23.27
2022-08-18T02:00:13.696Z,24.02
2022-08-18T02:02:42.245Z,22.35
2022-08-18T02:05:35.500Z,20.92
2022-08-18T02:08:03.188Z,19.38
2022-08-18T02:10:30.392Z,22.02
2022-08-18T02:12:57.438Z,16.48
2022-08-18T02:15:24.410Z,20.23
2022-08-18T02:17:51.766Z,22.70
2022-08-18T02:20:19.807Z,19.25
2022-08-18T02:22:48.296Z,21.17
2022-08-18T02:25:17.117Z,18.00
2022-08-18T02:27:45.921Z,19.63
2022-08-18T02:30:18.411Z,18.65
2022-08-18T02:32:45.522Z,22.98
2022-08-18T02:35:12.867Z,19.85
2022-08-18T02:37:50.387Z,19.45
2022-08-18T02:40:19.199Z,28.33
2022-08-18T02:42:47.557Z,25.88
2022-08-18T02:45:14.933Z,19.67
2022-08-18T02:47:44.156Z,21.38
2022-08-18T02:50:12.999Z,20.13
2022-08-18T02:52:40.741Z,23.75
2022-08-18T02:55:09.138Z,19.90
2022-08-18T02:57:36.182Z,24.42
2022-08-18T03:00:04.389Z,21.63
2022-08-18T03:02:32.438Z,22.30
2022-08-18T03:04:59.560Z,21.75
2022-08-18T03:07:26.571Z,22.05
2022-08-18T03:09:53.521Z,24.42
2022-08-18T03:12:20.594Z,28.10
2022-08-18T03:14:47.682Z,23.40
2022-08-18T03:17:15.126Z,22.05
2022-08-18T03:19:43.978Z,23.45
2022-08-18T03:22:27.452Z,25.27
2022-08-18T03:24:58.239Z,29.42
2022-08-18T03:27:26.113Z,29.58
2022-08-18T03:29:53.554Z,24.98
2022-08-18T03:32:20.505Z,24.40
2022-08-18T03:34:47.614Z,21.23
2022-08-18T03:37:16.217Z,25.58
2022-08-18T03:39:43.324Z,23.50
2022-08-18T03:42:10.413Z,20.15
2022-08-18T03:44:37.467Z,23.10
2022-08-18T03:47:09.955Z,23.33
2022-08-18T03:49:38.688Z,21.83
2022-08-18T03:52:10.224Z,21.23
2022-08-18T03:54:38.980Z,23.83
2022-08-18T03:57:10.131Z,25.80
2022-08-18T03:59:38.245Z,25.65
2022-08-18T04:02:05.784Z,26.88
2022-08-18T04:04:33.074Z,23.25
2022-08-18T04:07:08.173Z,29.63
2022-08-18T04:09:37.624Z,21.10
2022-08-18T04:12:16.248Z,28.52
2022-08-18T04:14:48.985Z,25.27
2022-08-18T04:17:25.137Z,24.98
2022-08-18T04:19:55.090Z,26.42
2022-08-18T04:22:23.346Z,27.98
2022-08-18T04:24:50.618Z,29.67
2022-08-18T04:27:20.590Z,31.15
2022-08-18T04:29:47.982Z,25.58
2022-08-18T04:32:15.240Z,31.33
2022-08-18T04:34:42.212Z,36.65
2022-08-18T04:37:09.808Z,27.67
2022-08-18T04:39:37.889Z,35.25
2022-08-18T04:42:06.018Z,26.15
2022-08-18T04:44:33.967Z,26.08
2022-08-18T04:47:01.951Z,28.55
2022-08-18T04:49:30.320Z,26.92
2022-08-18T04:52:38.750Z,29.80
2022-08-18T04:55:05.939Z,25.90
2022-08-18T04:57:34.902Z,32.55
2022-08-18T05:00:02.971Z,26.30
2022-08-18T05:02:33.009Z,26.73
2022-08-18T05:05:01.348Z,25.80
2022-08-18T05:07:28.389Z,26.52
2022-08-18T05:09:55.630Z,27.25
2022-08-18T05:12:26.055Z,23.88
2022-08-18T05:14:54.293Z,26.17
2022-08-18T05:17:21.316Z,26.25
2022-08-18T05:19:49.824Z,20.52
2022-08-18T05:22:19.719Z,26.50
2022-08-18T05:24:55.858Z,24.42
2022-08-18T05:27:22.823Z,24.90
2022-08-18T05:29:51.572Z,19.63
2022-08-18T05:32:41.240Z,21.35
2022-08-18T05:35:20.196Z,18.33
2022-08-18T05:38:35.631Z,20.05
2022-08-18T05:41:22.891Z,37.78
2022-08-18T05:43:52.577Z,18.30
2022-08-18T05:46:25.964Z,24.90
2022-08-18T05:48:52.944Z,20.90
2022-08-18T05:51:36.700Z,14.90
2022-08-18T05:54:24.916Z,21.10
2022-08-18T05:56:54.314Z,15.38
2022-08-18T05:59:28.761Z,16.45
2022-08-18T06:02:17.897Z,18.05
2022-08-18T06:05:01.821Z,21.67
2022-08-18T06:08:02.223Z,12.98
2022-08-18T06:10:31.771Z,20.83
2022-08-18T06:13:01.733Z,18.70
2022-08-18T06:15:55.767Z,15.43
2022-08-18T06:18:50.605Z,15.15
2022-08-18T06:21:44.878Z,17.58
2022-08-18T06:24:56.517Z,20.80
2022-08-18T06:27:44.747Z,18.17
2022-08-18T06:30:24.083Z,17.42
2022-08-18T06:33:11.975Z,16.15
2022-08-18T06:35:46.687Z,15.00
2022-08-18T06:38:41.009Z,19.83
2022-08-18T06:41:44.029Z,18.23
2022-08-18T06:44:20.184Z,18.35
2022-08-18T06:47:04.197Z,17.00
2022-08-18T06:49:57.073Z,18.30
2022-08-18T06:52:30.592Z,17.67
2022-08-18T06:55:07.286Z,13.65
2022-08-18T06:57:36.289Z,13.00
2022-08-18T07:00:24.266Z,17.17
2022-08-18T07:03:22.483Z,14.98
2022-08-18T07:06:05.127Z,14.30
2022-08-18T07:08:42.477Z,15.00
2022-08-18T07:11:33.160Z,18.13
2022-08-18T07:14:25.549Z,16.75
2022-08-18T07:17:42.532Z,16.85
2022-08-18T07:20:22.546Z,13.50
2022-08-18T07:23:08.145Z,16.02
2022-08-18T07:25:44.234Z,19.13
2022-08-18T07:28:46.571Z,19.15
2022-08-18T07:31:36.072Z,12.95
2022-08-18T07:34:36.510Z,11.02
2022-08-18T07:37:59.273Z,16.67
2022-08-18T07:40:38.002Z,20.65
2022-08-18T07:43:22.266Z,10.23
2022-08-18T07:45:53.232Z,12.57
2022-08-18T07:48:38.641Z,16.00
2022-08-18T07:51:24.157Z,14.25
2022-08-18T07:53:56.904Z,18.73
2022-08-18T07:56:56.068Z,19.77
2022-08-18T07:59:55.795Z,14.57
2022-08-18T08:02:35.200Z,13.40
2022-08-18T08:05:39.891Z,12.40
2022-08-18T08:08:29.096Z,14.52
2022-08-18T08:11:16.995Z,16.02
2022-08-18T08:14:17.341Z,13.27
2022-08-18T08:17:04.364Z,10.57
2022-08-18T08:20:02.332Z,12.63
2022-08-18T08:22:39.719Z,10.88
2022-08-18T08:25:46.875Z,12.02
2022-08-18T08:28:31.035Z,9.60
2022-08-18T08:31:37.664Z,17.38
2022-08-18T08:34:14.959Z,11.93
2022-08-18T08:36:46.859Z,10.73
2022-08-18T08:39:57.928Z,15.65
2022-08-18T08:42:41.844Z,15.55
2022-08-18T08:45:24.965Z,12.18
2022-08-18T08:48:24.514Z,10.60
2022-08-18T08:51:06.326Z,15.43
2022-08-18T08:53:52.219Z,12.35
2022-08-18T08:56:29.545Z,12.85
2022-08-18T08:59:05.404Z,11.32
2022-08-18T09:01:52.424Z,45.80
2022-08-18T09:05:08.671Z,66.43
2022-08-18T09:08:07.137Z,11.38
2022-08-18T09:11:18.058Z,20.83
2022-08-18T09:14:15.807Z,42.58
2022-08-18T09:17:33.861Z,39.13
2022-08-18T09:20:16.620Z,18.27
2022-08-18T09:22:54.078Z,12.48
2022-08-18T09:25:39.489Z,13.90
2022-08-18T09:28:19.643Z,9.95
2022-08-18T09:31:01.927Z,15.15
2022-08-18T09:34:09.705Z,12.75
2022-08-18T09:37:14.190Z,14.02
2022-08-18T09:40:33.394Z,24.92
2022-08-18T09:43:20.166Z,16.25
2022-08-18T09:45:47.241Z,9.80
2022-08-18T09:48:20.699Z,14.65
2022-08-18T09:51:18.334Z,9.25
2022-08-18T09:53:46.115Z,12.77
2022-08-18T09:56:19.644Z,13.80
2022-08-18T09:59:02.825Z,30.70
2022-08-18T10:01:40.165Z,13.88
2022-08-18T10:04:28.924Z,11.93
2022-08-18T10:13:51.674Z,14.38
2022-08-18T10:17:23.457Z,10.43
2022-08-18T10:23:08.088Z,21.15
2022-08-18T10:25:47.769Z,8.32
2022-08-18T10:28:55.355Z,16.60
2022-08-18T10:31:24.057Z,9.90
2022-08-18T10:34:16.820Z,10.85
2022-08-18T10:37:00.642Z,8.40
2022-08-18T10:39:41.225Z,18.67
2022-08-18T10:42:33.631Z,8.30
2022-08-18T10:45:24.667Z,11.05
2022-08-18T10:48:17.290Z,12.63
2022-08-18T10:51:07.333Z,9.65
2022-08-18T10:53:54.700Z,8.00
2022-08-18T10:56:55.705Z,8.57
2022-08-18T11:00:18.777Z,10.25
2022-08-18T11:02:45.592Z,10.45
2022-08-18T11:05:24.364Z,12.48
2022-08-18T11:08:16.206Z,9.55
2022-08-18T11:11:06.202Z,9.68
2022-08-18T11:14:05.599Z,8.85
2022-08-18T11:16:56.557Z,7.97
2022-08-18T11:19:27.000Z,8.27
2022-08-18T11:21:54.542Z,8.93
2022-08-18T11:24:32.244Z,6.68
2022-08-18T11:27:16.751Z,8.68
2022-08-18T11:29:44.887Z,10.55
2022-08-18T11:32:29.999Z,7.53
2022-08-18T11:34:59.693Z,9.80
2022-08-18T11:37:49.788Z,5.53
2022-08-18T11:43:10.572Z,8.18
2022-08-18T11:45:45.828Z,12.27
2022-08-18T11:48:37.711Z,7.45
2022-08-18T11:51:27.346Z,8.85
2022-08-18T11:54:21.805Z,11.38
2022-08-18T11:56:50.683Z,7.93
2022-08-18T12:02:18.945Z,11.35
2022-08-18T12:04:53.308Z,12.82
2022-08-18T12:07:35.333Z,9.57
2022-08-18T12:10:26.463Z,10.95
2022-08-18T12:13:00.878Z,11.57
2022-08-18T12:15:43.418Z,12.45
2022-08-18T12:18:26.636Z,11.20
2022-08-18T12:20:58.741Z,6.35
2022-08-18T12:23:26.179Z,8.85
2022-08-18T12:25:53.282Z,9.13
2022-08-18T12:28:28.383Z,11.80
2022-08-18T12:30:56.936Z,9.00
2022-08-18T12:33:25.170Z,8.00
2022-08-18T12:35:52.908Z,9.80
2022-08-18T12:38:19.942Z,10.77
2022-08-18T12:40:46.938Z,12.02
2022-08-18T12:43:13.939Z,8.20
2022-08-18T12:45:42.277Z,7.88
2022-08-18T12:48:09.840Z,10.07
2022-08-18T12:50:50.148Z,10.20
2022-08-18T12:56:25.026Z,6.97
2022-08-18T12:58:53.357Z,10.02
2022-08-18T13:01:23.358Z,8.52
2022-08-18T13:04:11.112Z,6.20
2022-08-18T13:07:00.514Z,8.23
2022-08-18T13:09:48.536Z,8.15
2022-08-18T13:12:20.449Z,10.32
2022-08-18T13:14:49.907Z,9.95
2022-08-18T13:17:32.421Z,6.03
2022-08-18T13:20:11.350Z,11.48
2022-08-18T13:22:41.205Z,8.80
2022-08-18T13:25:12.855Z,7.32
2022-08-18T13:28:00.815Z,9.10
2022-08-18T13:30:31.497Z,9.75
2022-08-18T13:33:05.916Z,9.93
2022-08-18T13:35:52.013Z,7.93
2022-08-18T13:38:25.991Z,9.52
2022-08-18T13:40:58.775Z,13.02
2022-08-18T13:43:34.530Z,7.25
2022-08-18T13:46:02.761Z,9.77
2022-08-18T13:48:32.009Z,8.30
2022-08-18T13:51:01.428Z,6.10
2022-08-18T13:53:31.709Z,8.50
2022-08-18T13:55:59.354Z,9.95
2022-08-18T13:58:28.713Z,6.65
2022-08-18T14:01:39.755Z,7.22
2022-08-18T14:03:50.371Z,9.20
2022-08-18T14:06:22.887Z,8.23
2022-08-18T14:08:53.500Z,8.40
2022-08-18T14:11:27.616Z,12.70
2022-08-18T14:14:01.144Z,11.95
2022-08-18T14:16:29.174Z,14.05
2022-08-18T14:19:17.886Z,10.43
2022-08-18T14:22:17.628Z,8.95
2022-08-18T14:25:04.451Z,9.20
2022-08-18T14:27:38.449Z,8.75
2022-08-18T14:30:10.535Z,9.15
2022-08-18T14:32:48.906Z,10.85
2022-08-18T14:36:03.775Z,9.73
2022-08-18T14:38:05.694Z,7.13
2022-08-18T14:40:33.482Z,8.45
2022-08-18T14:43:02.711Z,8.40
2022-08-18T14:45:35.649Z,6.78
2022-08-18T14:48:10.946Z,10.80
2022-08-18T14:50:44.753Z,11.50
2022-08-18T14:53:21.949Z,8.30
2022-08-18T14:55:53.165Z,10.95
2022-08-18T14:58:28.834Z,10.18
2022-08-18T15:01:08.448Z,14.63
2022-08-18T15:03:39.302Z,8.57
2022-08-18T15:06:08.205Z,10.52
2022-08-18T15:08:46.979Z,9.35
2022-08-18T15:11:14.144Z,7.75
2022-08-18T15:13:45.179Z,8.65
2022-08-18T15:16:15.052Z,8.98
2022-08-18T15:18:44.189Z,8.43
2022-08-18T15:21:35.567Z,7.85
2022-08-18T15:24:25.845Z,10.15
2022-08-18T15:26:57.861Z,9.35
2022-08-18T15:29:29.131Z,10.32
2022-08-18T15:32:01.988Z,12.23
2022-08-18T15:34:32.238Z,14.52
2022-08-18T15:37:09.496Z,10.50
2022-08-18T15:39:37.231Z,6.57
2022-08-18T15:42:11.412Z,10.43
2022-08-18T15:44:38.770Z,12.75
2022-08-18T15:47:09.337Z,9.32
2022-08-18T15:49:36.772Z,7.90
2022-08-18T15:52:04.372Z,11.88
2022-08-18T15:54:31.401Z,10.55
2022-08-18T15:56:58.857Z,9.65
2022-08-18T15:59:34.117Z,6.60
2022-08-18T16:02:11.527Z,10.30
2022-08-18T16:04:41.324Z,7.97
2022-08-18T16:07:12.033Z,12.35
2022-08-18T16:09:39.010Z,9.77
2022-08-18T16:12:09.959Z,10.50
2022-08-18T16:14:41.022Z,8.73
2022-08-18T16:17:09.369Z,13.48
2022-08-18T16:19:44.971Z,10.23
2022-08-18T16:22:13.336Z,13.90
2022-08-18T16:24:40.374Z,12.00
2022-08-18T16:27:08.820Z,11.52
2022-08-18T16:29:36.506Z,12.65
2022-08-18T16:32:04.414Z,12.07
2022-08-18T16:34:32.257Z,9.10
2022-08-18T16:36:59.223Z,10.52
2022-08-18T16:39:26.171Z,16.80
2022-08-18T16:41:53.216Z,11.95
2022-08-18T16:44:20.579Z,11.73
2022-08-18T16:46:47.671Z,11.05
2022-08-18T16:49:14.899Z,12.07
2022-08-18T16:51:45.406Z,11.63
2022-08-18T16:54:14.342Z,9.48
2022-08-18T16:56:41.292Z,16.75
2022-08-18T16:59:27.292Z,9.82
2022-08-18T17:02:12.827Z,11.48
2022-08-18T17:04:40.506Z,11.50
2022-08-18T17:07:07.773Z,8.60
2022-08-18T17:09:35.460Z,10.15
2022-08-18T17:12:02.672Z,14.43
2022-08-18T17:14:31.981Z,11.57
2022-08-18T17:17:00.599Z,16.27
2022-08-18T17:19:33.727Z,8.90
2022-08-18T17:22:03.710Z,9.93
2022-08-18T17:24:31.798Z,11.55
2022-08-18T17:27:26.676Z,10.57
2022-08-18T17:30:20.155Z,10.93
2022-08-18T17:32:55.665Z,11.70
2022-08-18T17:35:33.395Z,14.43
2022-08-18T17:38:36.258Z,14.23
2022-08-18T17:41:04.674Z,13.07
2022-08-18T17:46:28.567Z,13.52
2022-08-18T17:49:47.699Z,10.43
2022-08-18T17:52:24.185Z,16.73
2022-08-18T17:54:58.217Z,15.05
2022-08-18T17:57:35.182Z,13.30
2022-08-18T18:00:15.400Z,15.70
2022-08-18T18:02:45.573Z,18.67
2022-08-18T18:05:18.407Z,14.85
2022-08-18T18:07:50.314Z,15.10
2022-08-18T18:11:04.378Z,13.90
2022-08-18T18:13:32.954Z,8.98
2022-08-18T18:16:25.022Z,10.30
2022-08-18T18:19:03.318Z,15.77
2022-08-18T18:22:00.445Z,14.63
2022-08-18T18:24:28.640Z,13.80
2022-08-18T18:26:55.592Z,15.45
2022-08-18T18:29:37.377Z,15.73
2022-08-18T18:32:30.125Z,12.23
2022-08-18T18:35:19.118Z,12.48
2022-08-18T18:37:54.570Z,18.90
2022-08-18T18:40:37.160Z,14.45
2022-08-18T18:43:29.131Z,18.00
2022-08-18T18:46:08.784Z,14.25
2022-08-18T18:48:56.943Z,10.23
2022-08-18T18:51:53.763Z,15.52
2022-08-18T18:54:55.521Z,15.88
2022-08-18T18:57:57.403Z,12.85
2022-08-18T19:00:37.288Z,13.30
2022-08-18T19:03:28.239Z,12.95
2022-08-18T19:06:22.456Z,17.17
2022-08-18T19:09:06.151Z,14.65
2022-08-18T19:11:56.494Z,21.40
2022-08-18T19:14:37.003Z,15.77
2022-08-18T19:17:20.959Z,15.85
2022-08-18T19:20:00.356Z,18.55
2022-08-18T19:23:31.505Z,15.30
2022-08-18T19:26:13.716Z,14.18
2022-08-18T19:29:10.311Z,14.07
2022-08-18T19:32:20.951Z,14.98
2022-08-18T19:34:51.230Z,11.93
2022-08-18T19:37:56.735Z,16.60
2022-08-18T19:40:54.487Z,12.43
2022-08-18T19:43:47.261Z,18.35
2022-08-18T19:46:59.585Z,16.23
2022-08-18T19:49:52.655Z,19.88
2022-08-18T19:52:46.506Z,18.27
2022-08-18T19:55:55.102Z,18.45
2022-08-18T19:58:36.288Z,15.48
2022-08-18T20:01:20.952Z,15.90
2022-08-18T20:04:09.570Z,17.05
2022-08-18T20:07:20.318Z,17.05
2022-08-18T20:10:23.032Z,13.50
2022-08-18T20:13:53.458Z,21.85
2022-08-18T20:16:34.556Z,18.10
2022-08-18T20:19:44.719Z,17.95
2022-08-18T20:22:34.203Z,16.25
2022-08-18T20:25:18.077Z,19.60
2022-08-18T20:27:58.503Z,13.38
2022-08-18T20:30:28.177Z,15.05
2022-08-18T20:33:38.086Z,11.60
2022-08-18T20:36:30.259Z,12.93
2022-08-18T20:39:00.020Z,18.42
2022-08-18T20:41:44.494Z,14.23
2022-08-18T20:44:45.428Z,13.20
2022-08-18T20:47:30.930Z,14.65
2022-08-18T20:50:31.467Z,14.38
2022-08-18T20:53:10.476Z,13.50
2022-08-18T20:56:44.065Z,12.98
2022-08-18T20:59:20.306Z,15.52
2022-08-18T21:02:35.046Z,12.15
2022-08-18T21:05:02.129Z,15.18
2022-08-18T21:07:38.186Z,12.35
2022-08-18T21:10:17.900Z,13.38
2022-08-18T21:12:55.858Z,14.55
2022-08-18T21:15:30.382Z,12.98
2022-08-18T21:18:21.243Z,13.77
2022-08-18T21:20:51.928Z,15.25
2022-08-18T21:23:29.833Z,11.40
2022-08-18T21:26:15.999Z,15.73
2022-08-18T21:28:51.866Z,15.23
2022-08-18T21:31:45.014Z,13.35
2022-08-18T21:34:36.280Z,15.48
2022-08-18T21:37:07.904Z,13.30
2022-08-18T21:39:46.275Z,13.30
2022-08-18T21:42:26.194Z,11.55
2022-08-18T21:44:56.869Z,11.95
2022-08-18T21:47:34.119Z,17.58
2022-08-18T21:50:16.468Z,14.02
2022-08-18T21:52:57.345Z,15.45
2022-08-18T21:55:31.834Z,12.68
2022-08-18T21:58:17.800Z,12.18
2022-08-18T22:01:21.670Z,13.20
2022-08-18T22:04:02.972Z,13.57
2022-08-18T22:06:41.144Z,12.43
2022-08-18T22:09:29.185Z,14.98
2022-08-18T22:12:44.523Z,13.63
2022-08-18T22:15:13.706Z,10.70
2022-08-18T22:17:52.083Z,15.65
2022-08-18T22:20:48.323Z,12.32
2022-08-18T22:23:33.831Z,12.07
2022-08-18T22:26:31.627Z,16.00
2022-08-18T22:29:10.257Z,13.95
2022-08-18T22:31:45.623Z,18.75
2022-08-18T22:34:28.030Z,15.32
2022-08-18T22:37:03.633Z,15.35
2022-08-18T22:39:56.243Z,14.98
2022-08-18T22:42:33.489Z,11.43
2022-08-18T22:45:04.445Z,17.63
2022-08-18T22:47:42.940Z,11.52
2022-08-18T22:50:13.691Z,11.80
2022-08-18T22:52:46.481Z,12.55
2022-08-18T22:55:22.040Z,11.23
2022-08-18T22:57:54.369Z,19.02
2022-08-18T23:00:25.178Z,14.07
2022-08-18T23:02:53.807Z,11.50
2022-08-18T23:05:21.738Z,15.55
2022-08-18T23:07:48.981Z,15.93
2022-08-18T23:10:16.763Z,17.63
2022-08-18T23:12:46.758Z,12.93
2022-08-18T23:15:16.590Z,16.85
2022-08-18T23:17:44.021Z,13.93
2022-08-18T23:20:17.951Z,18.15
2022-08-18T23:22:47.858Z,12.63
2022-08-18T23:25:15.726Z,11.80
2022-08-18T23:27:43.048Z,19.83
2022-08-18T23:30:11.204Z,21.08
2022-08-18T23:32:38.184Z,11.35
2022-08-18T23:35:05.815Z,12.02
2022-08-18T23:37:33.015Z,11.82
2022-08-18T23:40:00.113Z,16.75
2022-08-18T23:42:27.388Z,14.10
2022-08-18T23:45:03.685Z,13.05
2022-08-18T23:47:31.423Z,15.60
2022-08-18T23:49:58.511Z,11.23
2022-08-18T23:52:25.533Z,12.15
2022-08-18T23:54:52.509Z,12.43
2022-08-18T23:57:19.449Z,11.45
2022-08-18T23:59:46.373Z,15.02
